Time;durP1;ratioP1;P1;durP2;ratioP2;P2;SDS_P1;SDS_P2;PMS_P1;PMS_P2;Temp;Humidity;BMP_temperature;BMP_pressure;BME280_temperature;BME280_humidity;BME280_pressure;Samples;Min_cycle;Max_cycle;Signal;HPM_P1;HPM_P2
2022/05/17 00:00:47;;;;;;;3.43;2.40;;;;;;;;;;5095905;28;20470;-73
2022/05/17 00:03:14;;;;;;;4.17;2.33;;;;;;;;;;5096218;28;20457;-73
2022/05/17 00:05:42;;;;;;;3.33;2.30;;;;;;;;;;5096202;28;20550;-73
2022/05/17 00:08:10;;;;;;;5.27;2.17;;;;;;;;;;5096128;28;20458;-73
2022/05/17 00:10:38;;;;;;;4.13;2.20;;;;;;;;;;5096092;28;20482;-73
2022/05/17 00:13:05;;;;;;;2.50;2.27;;;;;;;;;;5095936;28;20951;-73
2022/05/17 00:15:33;;;;;;;3.67;1.90;;;;;;;;;;5096058;28;20939;-73
2022/05/17 00:18:01;;;;;;;8.20;2.87;;;;;;;;;;5096001;28;20438;-73
2022/05/17 00:20:28;;;;;;;2.50;2.30;;;;;;;;;;5095817;28;20833;-73
2022/05/17 00:22:55;;;;;;;2.80;2.10;;;;;;;;;;5095403;28;20462;-73
2022/05/17 00:25:25;;;;;;;3.43;2.57;;;;;;;;;;5095936;28;20442;-73
2022/05/17 00:27:52;;;;;;;3.67;2.97;;;;;;;;;;5095661;28;20466;-73
2022/05/17 00:30:19;;;;;;;3.57;2.57;;;;;;;;;;5095356;28;20467;-73
2022/05/17 00:32:47;;;;;;;3.73;2.57;;;;;;;;;;5095704;28;20481;-73
2022/05/17 00:35:15;;;;;;;3.80;3.30;;;;;;;;;;5095550;28;20483;-73
2022/05/17 00:37:43;;;;;;;4.13;2.80;;;;;;;;;;5095606;28;20537;-75
2022/05/17 00:40:11;;;;;;;4.33;3.23;;;;;;;;;;5095771;28;20470;-73
2022/05/17 00:42:39;;;;;;;17.90;5.27;;;;;;;;;;5095389;28;21020;-74
2022/05/17 00:45:09;;;;;;;7.80;4.20;;;;;;;;;;5095854;28;20451;-74
2022/05/17 00:47:38;;;;;;;7.53;3.70;;;;;;;;;;5095392;28;20478;-72
2022/05/17 00:50:06;;;;;;;5.43;3.40;;;;;;;;;;5095287;28;20483;-72
2022/05/17 00:52:38;;;;;;;7.57;4.17;;;;;;;;;;5095346;28;20454;-72
2022/05/17 00:55:06;;;;;;;8.30;4.97;;;;;;;;;;5095195;28;20482;-72
2022/05/17 00:57:36;;;;;;;11.63;4.30;;;;;;;;;;5095160;28;20455;-72
2022/05/17 01:00:07;;;;;;;13.90;4.60;;;;;;;;;;5094965;28;20528;-72
2022/05/17 01:02:34;;;;;;;7.80;4.23;;;;;;;;;;5095098;28;20561;-72
2022/05/17 01:05:02;;;;;;;6.53;4.40;;;;;;;;;;5095026;28;20474;-72
2022/05/17 01:07:33;;;;;;;7.60;4.87;;;;;;;;;;5094919;28;20451;-71
2022/05/17 01:10:00;;;;;;;6.30;4.20;;;;;;;;;;5094904;28;20479;-72
2022/05/17 01:12:27;;;;;;;6.83;4.70;;;;;;;;;;5094886;28;20455;-72
2022/05/17 01:15:00;;;;;;;9.13;4.60;;;;;;;;;;5094489;28;20486;-72
2022/05/17 01:17:30;;;;;;;7.43;4.53;;;;;;;;;;5094547;28;20441;-72
2022/05/17 01:19:57;;;;;;;9.53;3.80;;;;;;;;;;5094678;28;20547;-72
2022/05/17 01:22:26;;;;;;;4.10;3.70;;;;;;;;;;5094692;28;20458;-72
2022/05/17 01:24:53;;;;;;;6.73;3.57;;;;;;;;;;5094293;28;20808;-72
2022/05/17 01:27:23;;;;;;;5.47;4.00;;;;;;;;;;5094333;28;20446;-72
2022/05/17 01:29:51;;;;;;;7.93;3.63;;;;;;;;;;5094178;28;20467;-72
2022/05/17 01:32:18;;;;;;;6.97;4.50;;;;;;;;;;5094176;28;20455;-72
2022/05/17 01:34:46;;;;;;;6.07;3.97;;;;;;;;;;5094085;28;20493;-72
2022/05/17 01:37:14;;;;;;;7.30;4.37;;;;;;;;;;5094432;28;20459;-73
2022/05/17 01:39:44;;;;;;;7.57;4.70;;;;;;;;;;5094343;28;20972;-73
2022/05/17 01:42:12;;;;;;;6.00;4.23;;;;;;;;;;5094400;28;20466;-73
2022/05/17 01:44:39;;;;;;;5.50;4.20;;;;;;;;;;5093989;28;20447;-73
2022/05/17 01:47:07;;;;;;;9.37;4.30;;;;;;;;;;5093892;28;20459;-73
2022/05/17 01:49:34;;;;;;;4.60;4.03;;;;;;;;;;5094085;28;20487;-73
2022/05/17 01:52:01;;;;;;;8.70;4.70;;;;;;;;;;5094185;28;20928;-73
2022/05/17 01:54:28;;;;;;;7.00;5.20;;;;;;;;;;5094006;28;20486;-73
2022/05/17 01:56:56;;;;;;;7.37;4.57;;;;;;;;;;5094065;28;20450;-73
2022/05/17 01:59:24;;;;;;;8.13;4.63;;;;;;;;;;5093659;28;20466;-73
2022/05/17 02:01:51;;;;;;;7.60;4.50;;;;;;;;;;5094005;28;20946;-72
2022/05/17 02:04:18;;;;;;;5.67;4.00;;;;;;;;;;5093953;28;20469;-73
2022/05/17 02:06:45;;;;;;;7.73;5.17;;;;;;;;;;5093929;28;20447;-73
2022/05/17 02:09:12;;;;;;;9.10;4.30;;;;;;;;;;5093836;28;20454;-73
2022/05/17 02:11:40;;;;;;;11.93;5.37;;;;;;;;;;5093384;28;20446;-73
2022/05/17 02:14:09;;;;;;;6.20;4.67;;;;;;;;;;5093695;28;20885;-72
2022/05/17 02:16:37;;;;;;;13.30;6.87;;;;;;;;;;5093344;28;20454;-73
2022/05/17 02:19:04;;;;;;;7.10;4.80;;;;;;;;;;5093609;28;20431;-73
2022/05/17 02:21:31;;;;;;;7.30;4.27;;;;;;;;;;5093682;28;20451;-73
2022/05/17 02:23:58;;;;;;;10.70;4.50;;;;;;;;;;5093353;28;20473;-73
2022/05/17 02:26:25;;;;;;;10.60;5.50;;;;;;;;;;5093671;28;20462;-72
2022/05/17 02:28:52;;;;;;;8.30;5.30;;;;;;;;;;5093323;28;20461;-73
2022/05/17 02:31:21;;;;;;;8.57;5.10;;;;;;;;;;5093769;28;20450;-73
2022/05/17 02:33:48;;;;;;;8.60;4.83;;;;;;;;;;5093161;28;20465;-73
2022/05/17 02:36:15;;;;;;;6.27;5.67;;;;;;;;;;5093260;28;20449;-73
2022/05/17 02:38:43;;;;;;;7.43;4.93;;;;;;;;;;5093539;28;20924;-73
2022/05/17 02:41:10;;;;;;;9.73;5.60;;;;;;;;;;5093409;28;20475;-73
2022/05/17 02:43:37;;;;;;;6.43;5.10;;;;;;;;;;5093579;28;20450;-72
2022/05/17 02:46:05;;;;;;;5.87;4.63;;;;;;;;;;5093467;28;20458;-73
2022/05/17 02:48:33;;;;;;;13.33;6.57;;;;;;;;;;5093469;28;20447;-73
2022/05/17 02:51:07;;;;;;;11.70;5.07;;;;;;;;;;5093082;28;20470;-73
2022/05/17 02:53:35;;;;;;;5.97;5.37;;;;;;;;;;5093461;28;20426;-72
2022/05/17 02:56:02;;;;;;;8.53;7.30;;;;;;;;;;5093301;28;20486;-72
2022/05/17 02:58:29;;;;;;;6.23;5.07;;;;;;;;;;5093073;28;20453;-73
2022/05/17 03:00:56;;;;;;;8.33;5.20;;;;;;;;;;5093284;28;20814;-72
2022/05/17 03:03:23;;;;;;;9.93;6.87;;;;;;;;;;5093360;28;20450;-73
2022/05/17 03:05:52;;;;;;;10.07;5.57;;;;;;;;;;5093255;28;20446;-73
2022/05/17 03:08:19;;;;;;;6.63;5.07;;;;;;;;;;5092910;28;20446;-72
2022/05/17 03:10:46;;;;;;;5.40;4.70;;;;;;;;;;5093220;28;20837;-73
2022/05/17 03:13:14;;;;;;;6.50;5.03;;;;;;;;;;5093286;28;20451;-73
2022/05/17 03:15:41;;;;;;;9.67;5.03;;;;;;;;;;5092836;28;20483;-73
2022/05/17 03:18:08;;;;;;;8.27;5.20;;;;;;;;;;5093208;28;20866;-73
2022/05/17 03:20:36;;;;;;;5.67;4.63;;;;;;;;;;5092818;28;20475;-72
2022/05/17 03:23:04;;;;;;;7.10;4.70;;;;;;;;;;5093941;28;20462;-73
2022/05/17 03:25:31;;;;;;;5.47;4.97;;;;;;;;;;5096690;28;20442;-73
2022/05/17 03:27:58;;;;;;;9.53;5.30;;;;;;;;;;5096932;28;20951;-73
2022/05/17 03:30:26;;;;;;;15.60;6.83;;;;;;;;;;5096827;28;20817;-73
2022/05/17 03:32:53;;;;;;;6.80;5.30;;;;;;;;;;5096846;28;20454;-73
2022/05/17 03:35:20;;;;;;;7.10;5.23;;;;;;;;;;5096327;28;20489;-73
2022/05/17 03:37:47;;;;;;;7.17;5.63;;;;;;;;;;5096770;28;20821;-73
2022/05/17 03:40:16;;;;;;;9.63;5.23;;;;;;;;;;5096704;28;20474;-73
2022/05/17 03:42:43;;;;;;;5.07;4.57;;;;;;;;;;5096660;28;20936;-73
2022/05/17 03:45:11;;;;;;;8.27;6.27;;;;;;;;;;5096555;28;20451;-73
2022/05/17 03:47:38;;;;;;;7.90;4.90;;;;;;;;;;5096583;28;20939;-73
2022/05/17 03:50:06;;;;;;;6.40;5.00;;;;;;;;;;5096486;28;20471;-73
2022/05/17 03:52:33;;;;;;;6.70;5.37;;;;;;;;;;5096444;28;20455;-73
2022/05/17 03:55:02;;;;;;;7.80;5.20;;;;;;;;;;5096311;28;20493;-73
2022/05/17 03:57:30;;;;;;;6.20;5.20;;;;;;;;;;5096072;28;20446;-73
2022/05/17 03:59:58;;;;;;;9.03;5.97;;;;;;;;;;5096311;28;20473;-73
2022/05/17 04:02:25;;;;;;;9.20;5.57;;;;;;;;;;5095953;28;20450;-73
2022/05/17 04:04:53;;;;;;;5.97;5.47;;;;;;;;;;5096214;28;20442;-73
2022/05/17 04:07:20;;;;;;;10.27;6.77;;;;;;;;;;5095886;28;20455;-73
2022/05/17 04:09:47;;;;;;;13.53;7.10;;;;;;;;;;5096121;28;20998;-73
2022/05/17 04:12:15;;;;;;;8.00;5.47;;;;;;;;;;5096129;28;20815;-73
2022/05/17 04:14:43;;;;;;;7.43;6.20;;;;;;;;;;5096002;28;20482;-73
2022/05/17 04:17:10;;;;;;;11.10;5.93;;;;;;;;;;5096017;28;20446;-73
2022/05/17 04:19:39;;;;;;;12.50;6.93;;;;;;;;;;5095922;28;20471;-73
2022/05/17 04:22:07;;;;;;;9.80;5.97;;;;;;;;;;5095618;28;20497;-73
2022/05/17 04:24:34;;;;;;;19.73;10.40;;;;;;;;;;5095531;28;20872;-73
2022/05/17 04:27:02;;;;;;;6.70;5.43;;;;;;;;;;5095827;28;20447;-73
2022/05/17 04:29:29;;;;;;;8.20;7.13;;;;;;;;;;5095311;28;20466;-72
2022/05/17 04:31:57;;;;;;;14.20;5.67;;;;;;;;;;5095740;28;20468;-73
2022/05/17 04:34:24;;;;;;;11.83;6.77;;;;;;;;;;5095122;28;20462;-73
2022/05/17 04:36:51;;;;;;;10.30;7.53;;;;;;;;;;5095591;28;20843;-73
2022/05/17 04:39:19;;;;;;;8.63;5.70;;;;;;;;;;5095529;28;20474;-73
2022/05/17 04:41:46;;;;;;;12.07;7.10;;;;;;;;;;5095522;28;20462;-73
2022/05/17 04:44:13;;;;;;;17.10;6.20;;;;;;;;;;5095507;28;20446;-73
2022/05/17 04:46:40;;;;;;;8.43;5.43;;;;;;;;;;5095138;28;20443;-73
2022/05/17 04:49:09;;;;;;;7.97;6.30;;;;;;;;;;5095356;28;20956;-73
2022/05/17 04:51:36;;;;;;;8.00;6.30;;;;;;;;;;5095367;28;20497;-73
2022/05/17 04:54:03;;;;;;;7.93;5.43;;;;;;;;;;5094978;28;20459;-73
2022/05/17 04:56:31;;;;;;;17.10;6.63;;;;;;;;;;5094770;28;20482;-73
2022/05/17 04:58:58;;;;;;;6.73;6.03;;;;;;;;;;5094792;28;20461;-73
2022/05/17 05:01:25;;;;;;;11.40;6.70;;;;;;;;;;5095137;28;20538;-73
2022/05/17 05:03:53;;;;;;;24.07;8.37;;;;;;;;;;5094772;28;20457;-73
2022/05/17 05:06:21;;;;;;;9.30;7.40;;;;;;;;;;5094703;28;20458;-73
2022/05/17 05:08:48;;;;;;;8.10;6.00;;;;;;;;;;5095067;28;20915;-73
2022/05/17 05:11:15;;;;;;;9.63;5.40;;;;;;;;;;5094820;28;20478;-73
2022/05/17 05:13:43;;;;;;;6.33;5.57;;;;;;;;;;5094969;28;20457;-73
2022/05/17 05:16:11;;;;;;;9.80;6.77;;;;;;;;;;5094724;28;20490;-73
2022/05/17 05:18:38;;;;;;;7.20;6.10;;;;;;;;;;5094576;28;20431;-73
2022/05/17 05:21:06;;;;;;;7.90;5.50;;;;;;;;;;5094651;28;20998;-73
2022/05/17 05:23:34;;;;;;;14.30;9.50;;;;;;;;;;5094372;28;20465;-73
2022/05/17 05:26:02;;;;;;;9.73;5.57;;;;;;;;;;5094696;28;20962;-73
2022/05/17 05:28:29;;;;;;;6.67;5.70;;;;;;;;;;5094631;28;20450;-73
2022/05/17 05:30:57;;;;;;;17.60;6.63;;;;;;;;;;5094168;28;20491;-73
2022/05/17 05:33:25;;;;;;;10.10;7.20;;;;;;;;;;5094541;28;20450;-73
2022/05/17 05:35:52;;;;;;;11.17;6.20;;;;;;;;;;5094104;28;20516;-73
2022/05/17 05:38:19;;;;;;;11.07;6.57;;;;;;;;;;5094369;28;20813;-73
2022/05/17 05:40:48;;;;;;;10.33;6.77;;;;;;;;;;5094339;28;20477;-73
2022/05/17 05:43:15;;;;;;;7.43;6.57;;;;;;;;;;5094078;28;20447;-73
2022/05/17 05:45:42;;;;;;;7.90;5.87;;;;;;;;;;5093226;28;20447;-73
2022/05/17 05:48:10;;;;;;;9.23;6.50;;;;;;;;;;5093974;28;20500;-73
2022/05/17 05:50:37;;;;;;;7.17;5.03;;;;;;;;;;5093804;28;20478;-73
2022/05/17 05:53:06;;;;;;;10.53;7.10;;;;;;;;;;5094157;28;20450;-73
2022/05/17 05:55:34;;;;;;;9.10;6.90;;;;;;;;;;5094061;28;20482;-73
2022/05/17 05:58:03;;;;;;;10.90;6.50;;;;;;;;;;5094103;28;20532;-73
2022/05/17 06:00:30;;;;;;;8.97;6.43;;;;;;;;;;5093918;28;20471;-73
2022/05/17 06:02:57;;;;;;;8.30;6.00;;;;;;;;;;5093952;28;20458;-73
2022/05/17 06:05:25;;;;;;;10.57;6.00;;;;;;;;;;5093639;28;20458;-73
2022/05/17 06:07:52;;;;;;;7.70;6.10;;;;;;;;;;5094014;28;20811;-73
2022/05/17 06:10:20;;;;;;;10.40;6.10;;;;;;;;;;5093904;28;20839;-73
2022/05/17 06:12:47;;;;;;;7.27;6.13;;;;;;;;;;5093863;28;20944;-73
2022/05/17 06:15:16;;;;;;;10.07;7.10;;;;;;;;;;5093787;28;20486;-73
2022/05/17 06:17:43;;;;;;;11.07;7.70;;;;;;;;;;5093701;28;20443;-73
2022/05/17 06:20:12;;;;;;;8.33;7.13;;;;;;;;;;5093715;28;20475;-73
2022/05/17 06:22:39;;;;;;;7.63;6.63;;;;;;;;;;5093319;28;20500;-73
2022/05/17 06:25:07;;;;;;;13.83;6.70;;;;;;;;;;5093777;28;20781;-73
2022/05/17 06:27:34;;;;;;;11.93;7.23;;;;;;;;;;5093689;28;20451;-73
2022/05/17 06:30:01;;;;;;;13.67;6.60;;;;;;;;;;5093607;28;20475;-73
2022/05/17 06:32:30;;;;;;;9.87;7.40;;;;;;;;;;5093245;28;20465;-73
2022/05/17 06:34:57;;;;;;;8.60;7.20;;;;;;;;;;5093253;28;20507;-73
2022/05/17 06:37:24;;;;;;;8.67;6.13;;;;;;;;;;5093580;28;20450;-74
2022/05/17 06:39:51;;;;;;;7.87;6.60;;;;;;;;;;5093406;28;20482;-73
2022/05/17 06:42:19;;;;;;;9.13;6.73;;;;;;;;;;5093560;28;20952;-74
2022/05/17 06:44:46;;;;;;;9.93;7.07;;;;;;;;;;5093464;28;20537;-73
2022/05/17 06:47:13;;;;;;;13.07;7.40;;;;;;;;;;5093450;28;20454;-73
2022/05/17 06:49:41;;;;;;;10.30;7.17;;;;;;;;;;5093070;28;20477;-73
2022/05/17 06:52:09;;;;;;;9.67;8.77;;;;;;;;;;5093417;28;20457;-74
2022/05/17 06:54:37;;;;;;;9.33;8.23;;;;;;;;;;5093405;28;20451;-73
2022/05/17 06:57:06;;;;;;;8.60;6.80;;;;;;;;;;5094417;28;20559;-74
2022/05/17 06:59:33;;;;;;;8.00;6.80;;;;;;;;;;5097365;28;20827;-73
2022/05/17 07:02:00;;;;;;;11.53;6.60;;;;;;;;;;5097486;28;20954;-73
2022/05/17 07:04:27;;;;;;;11.27;7.27;;;;;;;;;;5097392;28;20451;-73
2022/05/17 07:06:56;;;;;;;13.20;7.63;;;;;;;;;;5097090;28;20443;-73
2022/05/17 07:09:24;;;;;;;10.37;7.70;;;;;;;;;;5096965;28;20466;-73
2022/05/17 07:14:37;;;;;;;12.70;6.70;;;;;;;;;;5097251;28;20405;-73
2022/05/17 07:17:04;;;;;;;12.93;7.03;;;;;;;;;;5097113;28;20486;-73
2022/05/17 07:19:32;;;;;;;9.27;6.63;;;;;;;;;;5097110;28;20466;-73
2022/05/17 07:22:01;;;;;;;11.40;6.77;;;;;;;;;;5096784;28;20512;-73
2022/05/17 07:24:28;;;;;;;9.87;7.20;;;;;;;;;;5096578;28;20461;-74
2022/05/17 07:26:55;;;;;;;12.53;8.33;;;;;;;;;;5096895;28;20450;-74
2022/05/17 07:29:22;;;;;;;20.20;8.13;;;;;;;;;;5096792;28;20963;-73
2022/05/17 07:31:49;;;;;;;8.40;7.20;;;;;;;;;;5096898;28;20485;-73
2022/05/17 07:34:17;;;;;;;11.83;7.77;;;;;;;;;;5096599;28;20461;-73
2022/05/17 07:36:44;;;;;;;8.23;7.37;;;;;;;;;;5096740;28;20513;-73
2022/05/17 07:39:13;;;;;;;8.37;7.40;;;;;;;;;;5096318;28;20465;-73
2022/05/17 07:41:41;;;;;;;8.83;7.50;;;;;;;;;;5096721;28;20823;-73
2022/05/17 07:44:08;;;;;;;12.30;6.20;;;;;;;;;;5096697;28;20465;-73
2022/05/17 07:46:35;;;;;;;11.13;8.30;;;;;;;;;;5096630;28;20450;-74
2022/05/17 07:49:03;;;;;;;9.10;7.23;;;;;;;;;;5096207;28;20455;-74
2022/05/17 07:51:30;;;;;;;11.43;7.60;;;;;;;;;;5096139;28;20453;-73
2022/05/17 07:53:57;;;;;;;13.50;8.50;;;;;;;;;;5096548;28;20815;-74
2022/05/17 07:56:26;;;;;;;8.67;7.77;;;;;;;;;;5096370;28;20486;-74
2022/05/17 07:58:53;;;;;;;13.00;7.60;;;;;;;;;;5096157;28;20439;-74
2022/05/17 08:01:20;;;;;;;13.00;8.87;;;;;;;;;;5096746;28;20943;-74
2022/05/17 08:03:47;;;;;;;9.77;8.10;;;;;;;;;;5096357;28;20813;-73
2022/05/17 08:06:14;;;;;;;12.23;8.10;;;;;;;;;;5096255;28;20457;-74
2022/05/17 08:08:41;;;;;;;8.00;7.20;;;;;;;;;;5095088;28;20457;-74
2022/05/17 08:11:08;;;;;;;9.13;7.40;;;;;;;;;;5096150;28;20474;-73
2022/05/17 08:13:36;;;;;;;10.10;7.73;;;;;;;;;;5096118;28;20813;-73
2022/05/17 08:16:04;;;;;;;12.40;7.60;;;;;;;;;;5096072;28;20490;-74
2022/05/17 08:18:32;;;;;;;9.70;6.90;;;;;;;;;;5095689;28;20439;-73
2022/05/17 08:20:59;;;;;;;9.43;8.00;;;;;;;;;;5095894;28;20812;-73
2022/05/17 08:23:26;;;;;;;9.17;7.57;;;;;;;;;;5095707;28;20553;-73
2022/05/17 08:28:39;;;;;;;6.73;5.97;;;;;;;;;;5095797;28;20911;-74
2022/05/17 08:31:06;;;;;;;7.80;7.10;;;;;;;;;;5096730;28;20471;-74
2022/05/17 08:33:33;;;;;;;7.70;5.50;;;;;;;;;;5095749;28;20461;-74
2022/05/17 08:36:01;;;;;;;7.87;6.70;;;;;;;;;;5095330;28;20489;-74
2022/05/17 08:38:30;;;;;;;6.57;5.90;;;;;;;;;;5095626;28;20814;-74
2022/05/17 08:41:00;;;;;;;9.50;5.13;;;;;;;;;;5095570;28;20478;-74
2022/05/17 08:43:29;;;;;;;7.40;6.03;;;;;;;;;;5095588;28;20798;-74
2022/05/17 08:46:11;;;;;;;6.40;5.80;;;;;;;;;;5095556;28;20802;-74
2022/05/17 08:48:43;;;;;;;7.70;5.37;;;;;;;;;;5095524;28;20474;-74
2022/05/17 08:51:13;;;;;;;8.67;6.70;;;;;;;;;;5095327;28;20474;-74
2022/05/17 08:53:40;;;;;;;7.40;6.70;;;;;;;;;;5095384;28;20455;-74
2022/05/17 08:56:09;;;;;;;6.90;6.07;;;;;;;;;;5095200;28;20991;-74
2022/05/17 08:58:36;;;;;;;9.20;5.80;;;;;;;;;;5094941;28;20455;-74
2022/05/17 09:01:07;;;;;;;9.13;5.10;;;;;;;;;;5095114;28;20477;-74
2022/05/17 09:03:41;;;;;;;7.90;5.10;;;;;;;;;;5095209;28;20465;-74
2022/05/17 09:06:12;;;;;;;8.90;4.93;;;;;;;;;;5095140;28;20431;-74
2022/05/17 09:08:42;;;;;;;8.37;6.10;;;;;;;;;;5094802;28;20435;-74
2022/05/17 09:11:13;;;;;;;7.13;5.30;;;;;;;;;;5095006;28;20470;-74
2022/05/17 09:13:46;;;;;;;8.87;5.17;;;;;;;;;;5095013;28;20896;-74
2022/05/17 09:16:14;;;;;;;6.60;5.13;;;;;;;;;;5094954;28;20475;-74
2022/05/17 09:18:45;;;;;;;6.73;4.27;;;;;;;;;;5094619;28;20521;-75
2022/05/17 09:21:24;;;;;;;12.17;5.07;;;;;;;;;;5094746;28;20497;-74
2022/05/17 09:23:51;;;;;;;8.90;5.00;;;;;;;;;;5094529;28;20473;-74
2022/05/17 09:26:19;;;;;;;5.03;4.50;;;;;;;;;;5094754;28;20446;-75
2022/05/17 09:28:50;;;;;;;6.50;4.73;;;;;;;;;;5094639;28;20450;-74
2022/05/17 09:31:18;;;;;;;7.53;4.10;;;;;;;;;;5094633;28;21074;-74
2022/05/17 09:33:49;;;;;;;4.37;3.70;;;;;;;;;;5094516;28;20465;-74
2022/05/17 09:36:18;;;;;;;4.27;3.70;;;;;;;;;;5094523;28;20539;-74
2022/05/17 09:38:48;;;;;;;5.20;4.00;;;;;;;;;;5094493;28;20450;-74
2022/05/17 09:41:17;;;;;;;6.50;3.83;;;;;;;;;;5094353;28;20529;-74
2022/05/17 09:43:46;;;;;;;4.33;3.93;;;;;;;;;;5094404;28;20451;-74
2022/05/17 09:46:14;;;;;;;4.20;3.80;;;;;;;;;;5094001;28;20443;-74
2022/05/17 09:54:28;;;;;;;6.50;4.17;;;;;;;;;;5094092;28;20422;-74
2022/05/17 09:56:55;;;;;;;4.60;3.93;;;;;;;;;;5094195;28;20477;-74
2022/05/17 09:59:23;;;;;;;6.50;3.50;;;;;;;;;;5094087;28;20841;-74
2022/05/17 10:01:51;;;;;;;4.80;3.83;;;;;;;;;;5094147;28;20971;-74
2022/05/17 10:04:20;;;;;;;4.10;3.53;;;;;;;;;;5094081;28;20947;-75
2022/05/17 10:06:51;;;;;;;6.67;3.57;;;;;;;;;;5094077;28;20954;-75
2022/05/17 10:09:28;;;;;;;6.17;3.60;;;;;;;;;;5093930;28;20898;-74
2022/05/17 10:11:58;;;;;;;6.27;3.40;;;;;;;;;;5093959;28;20488;-74
2022/05/17 10:14:30;;;;;;;5.30;3.40;;;;;;;;;;5093941;28;20450;-74
2022/05/17 10:17:02;;;;;;;4.73;3.30;;;;;;;;;;5093864;28;20558;-74
2022/05/17 10:19:35;;;;;;;4.77;4.30;;;;;;;;;;5093456;28;20483;-74
2022/05/17 10:22:10;;;;;;;6.80;3.50;;;;;;;;;;5093852;28;20431;-74
2022/05/17 10:24:43;;;;;;;4.90;3.70;;;;;;;;;;5093459;28;20814;-74
2022/05/17 10:27:13;;;;;;;7.37;4.50;;;;;;;;;;5093501;28;20492;-74
2022/05/17 10:29:45;;;;;;;4.10;3.70;;;;;;;;;;5093910;28;20959;-74
2022/05/17 10:32:19;;;;;;;3.97;3.60;;;;;;;;;;5093301;28;20530;-74
2022/05/17 10:34:49;;;;;;;5.00;4.50;;;;;;;;;;5093401;28;20479;-74
2022/05/17 10:37:19;;;;;;;11.03;4.50;;;;;;;;;;5093240;28;20531;-74
2022/05/17 10:39:51;;;;;;;4.97;4.20;;;;;;;;;;5093220;28;20474;-74
2022/05/17 10:42:18;;;;;;;5.33;4.20;;;;;;;;;;5093541;28;20896;-74
2022/05/17 10:44:47;;;;;;;4.03;3.63;;;;;;;;;;5093513;28;20458;-74
2022/05/17 10:47:22;;;;;;;4.60;3.80;;;;;;;;;;5093479;28;20818;-74
2022/05/17 10:49:57;;;;;;;6.00;5.50;;;;;;;;;;5093406;28;20508;-75
2022/05/17 10:52:31;;;;;;;3.40;3.10;;;;;;;;;;5093514;28;20981;-74
2022/05/17 10:55:02;;;;;;;3.70;3.40;;;;;;;;;;5093153;28;20445;-74
2022/05/17 10:57:35;;;;;;;4.13;3.63;;;;;;;;;;5093403;28;20566;-74
2022/05/17 11:00:08;;;;;;;4.23;3.53;;;;;;;;;;5093334;28;20478;-75
2022/05/17 11:02:42;;;;;;;8.03;3.90;;;;;;;;;;5093436;28;20484;-75
2022/05/17 11:05:15;;;;;;;4.13;3.73;;;;;;;;;;5093386;28;20431;-74
2022/05/17 11:07:49;;;;;;;5.20;4.73;;;;;;;;;;5093110;28;20446;-74
2022/05/17 11:10:22;;;;;;;6.13;4.20;;;;;;;;;;5093040;28;20474;-74
2022/05/17 11:12:51;;;;;;;3.60;3.30;;;;;;;;;;5093339;28;20431;-74
2022/05/17 11:15:20;;;;;;;4.00;3.70;;;;;;;;;;5092949;28;20457;-74
2022/05/17 11:17:51;;;;;;;5.37;4.13;;;;;;;;;;5093048;28;21005;-74
2022/05/17 11:20:23;;;;;;;6.70;3.73;;;;;;;;;;5093180;28;20500;-74
2022/05/17 11:22:54;;;;;;;5.30;3.60;;;;;;;;;;5093068;28;20867;-74
2022/05/17 11:25:30;;;;;;;6.03;4.30;;;;;;;;;;5093190;28;20431;-75
2022/05/17 11:28:02;;;;;;;3.00;2.80;;;;;;;;;;5093166;28;20522;-74
2022/05/17 11:30:30;;;;;;;4.17;3.33;;;;;;;;;;5093054;28;20470;-74
2022/05/17 11:33:15;;;;;;;7.67;3.93;;;;;;;;;;5093044;28;20449;-74
2022/05/17 11:35:50;;;;;;;3.47;3.20;;;;;;;;;;5082895;28;20473;-74
2022/05/17 11:38:21;;;;;;;6.40;3.83;;;;;;;;;;5092609;28;20487;-74
2022/05/17 11:40:53;;;;;;;5.97;4.30;;;;;;;;;;5092485;28;20524;-74
2022/05/17 11:46:07;;;;;;;4.53;4.13;;;;;;;;;;5096500;28;20405;-74
2022/05/17 11:48:47;;;;;;;4.63;4.20;;;;;;;;;;5096535;28;20455;-75
2022/05/17 11:51:14;;;;;;;7.57;4.90;;;;;;;;;;5096451;28;20470;-74
2022/05/17 11:53:47;;;;;;;4.20;3.80;;;;;;;;;;5096485;28;20455;-74
2022/05/17 11:56:18;;;;;;;5.03;4.17;;;;;;;;;;5097201;28;20880;-74
2022/05/17 11:58:46;;;;;;;6.13;4.50;;;;;;;;;;5096304;28;20834;-74
2022/05/17 12:01:28;;;;;;;4.00;3.60;;;;;;;;;;5095870;28;20474;-74
2022/05/17 12:03:56;;;;;;;7.80;4.23;;;;;;;;;;5095720;28;20457;-77
2022/05/17 12:06:38;;;;;;;4.90;4.50;;;;;;;;;;5095870;28;20447;-74
2022/05/17 12:09:08;;;;;;;5.43;4.90;;;;;;;;;;5095912;28;20442;-74
2022/05/17 12:11:42;;;;;;;9.37;4.40;;;;;;;;;;5096106;28;20441;-75
2022/05/17 12:14:15;;;;;;;6.10;4.50;;;;;;;;;;5096060;28;20837;-75
2022/05/17 12:16:46;;;;;;;4.60;4.20;;;;;;;;;;5095625;28;20480;-74
2022/05/17 12:19:17;;;;;;;6.93;4.40;;;;;;;;;;5095896;28;20434;-74
2022/05/17 12:21:50;;;;;;;6.27;4.60;;;;;;;;;;5096026;28;20431;-75
2022/05/17 12:24:26;;;;;;;6.60;4.37;;;;;;;;;;5095643;28;20458;-76
2022/05/17 12:27:02;;;;;;;9.00;5.40;;;;;;;;;;5096084;28;20939;-75
2022/05/17 12:32:20;;;;;;;4.33;4.03;;;;;;;;;;5095636;28;20410;-76
2022/05/17 12:34:51;;;;;;;5.43;4.57;;;;;;;;;;5095720;28;20782;-75
2022/05/17 12:37:18;;;;;;;4.83;4.10;;;;;;;;;;5095655;28;20471;-75
2022/05/17 12:45:22;;;;;;;5.23;4.73;;;;;;;;;;5095483;28;20406;-76
2022/05/17 12:47:50;;;;;;;5.07;4.40;;;;;;;;;;5095612;28;20896;-74
2022/05/17 12:50:19;;;;;;;5.07;4.37;;;;;;;;;;5095453;28;20840;-75
2022/05/17 12:52:47;;;;;;;6.77;5.63;;;;;;;;;;5095423;28;20450;-75
2022/05/17 12:55:20;;;;;;;7.17;4.57;;;;;;;;;;5094816;28;20476;-76
2022/05/17 12:57:47;;;;;;;7.50;4.17;;;;;;;;;;5095325;28;20474;-75
2022/05/17 13:00:16;;;;;;;5.07;4.57;;;;;;;;;;5095265;28;20474;-76
2022/05/17 13:02:44;;;;;;;6.10;4.30;;;;;;;;;;5095056;28;20455;-76
2022/05/17 13:05:24;;;;;;;6.07;4.20;;;;;;;;;;5095036;28;20473;-74
2022/05/17 13:07:59;;;;;;;4.80;4.30;;;;;;;;;;5094985;28;20450;-74
2022/05/17 13:10:28;;;;;;;5.93;4.60;;;;;;;;;;5094679;28;20474;-74
2022/05/17 13:12:55;;;;;;;5.30;4.40;;;;;;;;;;5095038;28;20450;-74
2022/05/17 13:15:25;;;;;;;5.07;4.53;;;;;;;;;;5095071;28;20451;-75
2022/05/17 13:17:54;;;;;;;9.10;4.37;;;;;;;;;;5095125;28;20481;-74
2022/05/17 13:20:23;;;;;;;5.70;3.93;;;;;;;;;;5095047;28;20479;-77
2022/05/17 13:22:54;;;;;;;6.33;4.30;;;;;;;;;;5094750;28;20553;-75
2022/05/17 13:25:23;;;;;;;5.87;5.30;;;;;;;;;;5094648;28;20474;-76
2022/05/17 13:27:53;;;;;;;4.80;4.00;;;;;;;;;;5094598;28;20453;-76
2022/05/17 13:30:25;;;;;;;5.87;4.60;;;;;;;;;;5095218;28;20470;-76
2022/05/17 13:32:54;;;;;;;4.83;4.33;;;;;;;;;;5094591;28;20455;-75
2022/05/17 13:35:22;;;;;;;6.17;4.13;;;;;;;;;;5094686;28;20458;-75
2022/05/17 13:38:03;;;;;;;5.40;4.90;;;;;;;;;;5094357;28;20622;-76
2022/05/17 13:40:41;;;;;;;5.97;5.40;;;;;;;;;;5094964;28;20470;-75
2022/05/17 13:43:25;;;;;;;4.47;4.07;;;;;;;;;;5094353;28;20494;-75
2022/05/17 13:46:00;;;;;;;5.57;4.53;;;;;;;;;;5094281;28;20442;-74
2022/05/17 13:48:28;;;;;;;8.30;5.70;;;;;;;;;;5094135;28;20439;-74
2022/05/17 13:50:58;;;;;;;4.77;4.07;;;;;;;;;;5094263;28;20466;-74
2022/05/17 13:53:26;;;;;;;7.20;4.50;;;;;;;;;;5094553;28;20447;-74
2022/05/17 13:55:53;;;;;;;5.87;5.17;;;;;;;;;;5094384;28;20520;-74
2022/05/17 13:58:23;;;;;;;5.07;4.40;;;;;;;;;;5093783;28;20482;-74
2022/05/17 14:01:07;;;;;;;6.33;5.40;;;;;;;;;;5094076;28;20483;-74
2022/05/17 14:03:34;;;;;;;5.87;5.00;;;;;;;;;;5094156;28;20435;-74
2022/05/17 14:06:10;;;;;;;7.50;5.60;;;;;;;;;;5093666;28;20461;-75
2022/05/17 14:14:12;;;;;;;5.80;4.83;;;;;;;;;;5093878;28;20917;-74
2022/05/17 14:16:46;;;;;;;4.83;4.00;;;;;;;;;;5093876;28;20459;-74
2022/05/17 14:19:15;;;;;;;5.20;4.70;;;;;;;;;;5093706;28;20477;-74
2022/05/17 14:21:43;;;;;;;5.73;5.00;;;;;;;;;;5093498;28;20454;-74
2022/05/17 14:24:14;;;;;;;8.60;4.93;;;;;;;;;;5093369;28;20459;-74
2022/05/17 14:26:44;;;;;;;5.67;5.10;;;;;;;;;;5093745;28;20437;-74
2022/05/17 14:29:11;;;;;;;5.07;4.57;;;;;;;;;;5093512;28;20495;-74
2022/05/17 14:31:39;;;;;;;4.90;4.50;;;;;;;;;;5093301;28;20462;-74
2022/05/17 14:34:08;;;;;;;9.23;4.20;;;;;;;;;;5093527;28;20932;-74
2022/05/17 14:36:36;;;;;;;8.50;4.43;;;;;;;;;;5093505;28;20990;-74
2022/05/17 14:39:03;;;;;;;4.47;4.17;;;;;;;;;;5093399;28;20532;-74
2022/05/17 14:41:31;;;;;;;6.87;4.70;;;;;;;;;;5093511;28;20900;-74
2022/05/17 14:43:59;;;;;;;5.50;5.00;;;;;;;;;;5093098;28;20461;-74
2022/05/17 14:46:26;;;;;;;7.80;5.17;;;;;;;;;;5093428;28;20962;-74
2022/05/17 14:48:55;;;;;;;4.87;4.47;;;;;;;;;;5093143;28;20445;-74
2022/05/17 14:51:24;;;;;;;6.03;5.10;;;;;;;;;;5093395;28;20962;-74
2022/05/17 14:53:52;;;;;;;5.17;4.77;;;;;;;;;;5093437;28;20465;-74
2022/05/17 14:56:19;;;;;;;5.20;4.70;;;;;;;;;;5093382;28;20455;-75
2022/05/17 14:58:46;;;;;;;6.10;5.50;;;;;;;;;;5092853;28;20498;-74
2022/05/17 15:01:16;;;;;;;5.10;4.60;;;;;;;;;;5092905;28;20539;-74
2022/05/17 15:03:45;;;;;;;7.57;5.50;;;;;;;;;;5093264;28;20960;-74
2022/05/17 15:06:13;;;;;;;6.40;4.87;;;;;;;;;;5092840;28;20512;-74
2022/05/17 15:08:42;;;;;;;6.53;4.20;;;;;;;;;;5093213;28;20449;-74
2022/05/17 15:11:11;;;;;;;7.07;4.07;;;;;;;;;;5092834;28;20470;-74
2022/05/17 15:13:40;;;;;;;4.07;3.77;;;;;;;;;;5093305;28;20527;-74
2022/05/17 15:16:07;;;;;;;5.47;4.80;;;;;;;;;;5093265;28;20955;-74
2022/05/17 15:18:38;;;;;;;8.97;6.87;;;;;;;;;;5094689;28;20474;-74